Bearn, Canada
Current Conditions -  °F | °C
As of 10:00 PM on Sunday 23 Nov 2014 (Local Time) from CYXR Reporting Station
Light Rain Light Rain  
Wind Chill: 30°   Ceiling: 800
Heat Index: 37°   Visibility: 0.75mi
Dew Point: 37°   Wind: 10mph
Humidity: 100%   Direction: 120°ESE
Pressure: 29.61"   Gusts: NA
Location:  47.28°N, 79.33°W
Report Text: CYXR 240300Z AUTO 12009KT 3/4SM -RA BR OVC008 03/03 A2961 RMK SLP037
Loading
Personal Weather Stations






























Interactive Weather Map New forecast layout! Learn more

10-Day Weather Forecast

Advertisements
Track Severe Weather on mobile